Grande-Vallee, Canada
Current Conditions -  °F | °C
As of 8:00 PM on Sunday 23 Nov 2014 (Local Time) from CYGP Reporting Station
Few Clouds Few Clouds  
Wind Chill: 19°   Ceiling: Unl
Heat Index: 19°   Visibility: 15mi
Dew Point: 18°   Wind: 3mph
Humidity: 93%   Direction: 260°W
Pressure: 30.1"   Gusts: NA
Location:  49.22°N, 65.13°W
Report Text: CYGP 240100Z 26003KT 15SM FEW220 M07/M08 A3010 RMK CI2 SLP195
Loading
Personal Weather Stations






























Interactive Weather Map New forecast layout! Learn more

10-Day Weather Forecast

Advertisements
Track Severe Weather on mobile